sensor_id;sensor_type;location;lat;lon;timestamp;temperature;humidity
32907;DHT22;19259;51.590;5.320;2022-12-13T00:01:31;-4.20;99.90
32907;DHT22;19259;51.590;5.320;2022-12-13T00:04:02;-4.20;99.90
32907;DHT22;19259;51.590;5.320;2022-12-13T00:06:30;-4.20;99.90
32907;DHT22;19259;51.590;5.320;2022-12-13T00:08:59;-4.30;99.90
32907;DHT22;19259;51.590;5.320;2022-12-13T00:11:27;-4.20;99.90
32907;DHT22;19259;51.590;5.320;2022-12-13T00:13:54;-4.30;99.90
32907;DHT22;19259;51.590;5.320;2022-12-13T00:16:24;-4.30;99.90
32907;DHT22;19259;51.590;5.320;2022-12-13T00:18:54;-4.30;99.90
32907;DHT22;19259;51.590;5.320;2022-12-13T00:21:25;-4.30;99.90
32907;DHT22;19259;51.590;5.320;2022-12-13T00:23:53;-4.30;99.90
32907;DHT22;19259;51.590;5.320;2022-12-13T00:26:25;-4.30;99.90
32907;DHT22;19259;51.590;5.320;2022-12-13T00:28:51;-4.40;99.90
32907;DHT22;19259;51.590;5.320;2022-12-13T00:31:23;-4.40;99.90
32907;DHT22;19259;51.590;5.320;2022-12-13T00:33:51;-4.50;99.90
32907;DHT22;19259;51.590;5.320;2022-12-13T00:36:19;-4.50;99.90
32907;DHT22;19259;51.590;5.320;2022-12-13T00:38:47;-4.50;99.90
32907;DHT22;19259;51.590;5.320;2022-12-13T00:41:18;-4.50;99.90
32907;DHT22;19259;51.590;5.320;2022-12-13T00:43:51;-4.50;99.90
32907;DHT22;19259;51.590;5.320;2022-12-13T00:46:17;-4.50;99.90
32907;DHT22;19259;51.590;5.320;2022-12-13T00:48:50;-4.50;99.90
32907;DHT22;19259;51.590;5.320;2022-12-13T00:51:20;-4.50;99.90
32907;DHT22;19259;51.590;5.320;2022-12-13T00:53:48;-4.50;99.90
32907;DHT22;19259;51.590;5.320;2022-12-13T00:56:19;-4.50;99.90
32907;DHT22;19259;51.590;5.320;2022-12-13T00:58:48;-4.50;99.90
32907;DHT22;19259;51.590;5.320;2022-12-13T01:01:19;-4.50;99.90
32907;DHT22;19259;51.590;5.320;2022-12-13T01:03:46;-4.60;99.90
32907;DHT22;19259;51.590;5.320;2022-12-13T01:06:35;-4.60;99.90
32907;DHT22;19259;51.590;5.320;2022-12-13T01:09:04;-4.60;99.90
32907;DHT22;19259;51.590;5.320;2022-12-13T01:11:32;-4.70;99.90
32907;DHT22;19259;51.590;5.320;2022-12-13T01:14:00;-4.70;99.90
32907;DHT22;19259;51.590;5.320;2022-12-13T01:16:28;-4.70;99.90
32907;DHT22;19259;51.590;5.320;2022-12-13T01:18:56;-4.70;99.90
32907;DHT22;19259;51.590;5.320;2022-12-13T01:21:24;-4.70;99.90
32907;DHT22;19259;51.590;5.320;2022-12-13T01:23:52;-4.70;99.90
32907;DHT22;19259;51.590;5.320;2022-12-13T01:26:21;-4.80;99.90
32907;DHT22;19259;51.590;5.320;2022-12-13T01:28:48;-4.70;99.90
32907;DHT22;19259;51.590;5.320;2022-12-13T01:31:18;-4.80;99.90
32907;DHT22;19259;51.590;5.320;2022-12-13T01:33:47;-4.80;99.90
32907;DHT22;19259;51.590;5.320;2022-12-13T01:36:17;-4.80;99.90
32907;DHT22;19259;51.590;5.320;2022-12-13T01:38:45;-4.90;99.90
32907;DHT22;19259;51.590;5.320;2022-12-13T01:41:18;-4.90;99.90
32907;DHT22;19259;51.590;5.320;2022-12-13T01:43:51;-5.00;99.90
32907;DHT22;19259;51.590;5.320;2022-12-13T01:46:20;-5.00;99.90
32907;DHT22;19259;51.590;5.320;2022-12-13T01:49:03;-5.00;99.90
32907;DHT22;19259;51.590;5.320;2022-12-13T01:51:42;-5.00;99.90
32907;DHT22;19259;51.590;5.320;2022-12-13T01:54:13;-5.10;99.90
32907;DHT22;19259;51.590;5.320;2022-12-13T01:56:43;-5.10;99.90
32907;DHT22;19259;51.590;5.320;2022-12-13T01:59:14;-5.10;99.90
32907;DHT22;19259;51.590;5.320;2022-12-13T02:01:43;-5.10;99.90
32907;DHT22;19259;51.590;5.320;2022-12-13T02:04:12;-5.10;99.90
32907;DHT22;19259;51.590;5.320;2022-12-13T02:06:42;-5.10;99.90
32907;DHT22;19259;51.590;5.320;2022-12-13T02:09:10;-5.00;99.90
32907;DHT22;19259;51.590;5.320;2022-12-13T02:11:40;-5.00;99.90
32907;DHT22;19259;51.590;5.320;2022-12-13T02:14:10;-5.00;99.90
32907;DHT22;19259;51.590;5.320;2022-12-13T02:19:26;-5.00;99.90
32907;DHT22;19259;51.590;5.320;2022-12-13T02:24:47;-5.00;99.90
32907;DHT22;19259;51.590;5.320;2022-12-13T02:27:36;-5.00;99.90
32907;DHT22;19259;51.590;5.320;2022-12-13T02:38:32;-5.10;99.90
32907;DHT22;19259;51.590;5.320;2022-12-13T02:43:33;-5.10;99.90
32907;DHT22;19259;51.590;5.320;2022-12-13T02:46:01;-5.10;99.90
32907;DHT22;19259;51.590;5.320;2022-12-13T02:48:33;-5.10;99.90
32907;DHT22;19259;51.590;5.320;2022-12-13T02:51:05;-5.10;99.90
32907;DHT22;19259;51.590;5.320;2022-12-13T02:53:31;-5.10;99.90
32907;DHT22;19259;51.590;5.320;2022-12-13T02:56:00;-5.10;99.90
32907;DHT22;19259;51.590;5.320;2022-12-13T02:58:31;-5.10;99.90
32907;DHT22;19259;51.590;5.320;2022-12-13T03:06:45;-5.00;99.90
32907;DHT22;19259;51.590;5.320;2022-12-13T03:12:14;-5.10;99.90
32907;DHT22;19259;51.590;5.320;2022-12-13T03:15:13;-5.00;99.90
32907;DHT22;19259;51.590;5.320;2022-12-13T03:17:44;-5.00;99.90
32907;DHT22;19259;51.590;5.320;2022-12-13T03:20:14;-5.00;99.90
32907;DHT22;19259;51.590;5.320;2022-12-13T03:22:42;-5.00;99.90
32907;DHT22;19259;51.590;5.320;2022-12-13T03:25:09;-4.90;99.90
32907;DHT22;19259;51.590;5.320;2022-12-13T03:27:37;-4.90;99.90
32907;DHT22;19259;51.590;5.320;2022-12-13T03:30:05;-4.80;99.90
32907;DHT22;19259;51.590;5.320;2022-12-13T03:32:33;-4.90;99.90
32907;DHT22;19259;51.590;5.320;2022-12-13T03:35:00;-4.90;99.90
32907;DHT22;19259;51.590;5.320;2022-12-13T03:37:28;-4.80;99.90
32907;DHT22;19259;51.590;5.320;2022-12-13T03:39:56;-4.90;99.90
32907;DHT22;19259;51.590;5.320;2022-12-13T03:42:27;-4.90;99.90
32907;DHT22;19259;51.590;5.320;2022-12-13T03:44:54;-4.80;99.90
32907;DHT22;19259;51.590;5.320;2022-12-13T03:47:22;-4.80;99.90
32907;DHT22;19259;51.590;5.320;2022-12-13T03:49:50;-4.90;99.90
32907;DHT22;19259;51.590;5.320;2022-12-13T03:52:17;-4.90;99.90
32907;DHT22;19259;51.590;5.320;2022-12-13T03:54:45;-4.90;99.90
32907;DHT22;19259;51.590;5.320;2022-12-13T03:57:12;-5.00;99.90
32907;DHT22;19259;51.590;5.320;2022-12-13T03:59:41;-4.90;99.90
32907;DHT22;19259;51.590;5.320;2022-12-13T04:02:08;-4.90;99.90
32907;DHT22;19259;51.590;5.320;2022-12-13T04:04:36;-4.90;99.90
32907;DHT22;19259;51.590;5.320;2022-12-13T04:07:03;-5.00;99.90
32907;DHT22;19259;51.590;5.320;2022-12-13T04:09:31;-4.90;99.90
32907;DHT22;19259;51.590;5.320;2022-12-13T04:11:58;-4.90;99.90
32907;DHT22;19259;51.590;5.320;2022-12-13T04:14:44;-4.90;99.90
32907;DHT22;19259;51.590;5.320;2022-12-13T04:17:11;-4.90;99.90
32907;DHT22;19259;51.590;5.320;2022-12-13T04:19:39;-4.90;99.90
32907;DHT22;19259;51.590;5.320;2022-12-13T04:22:06;-4.90;99.90
32907;DHT22;19259;51.590;5.320;2022-12-13T04:24:34;-4.90;99.90
32907;DHT22;19259;51.590;5.320;2022-12-13T04:27:03;-5.00;99.90
32907;DHT22;19259;51.590;5.320;2022-12-13T04:29:31;-5.00;99.90
32907;DHT22;19259;51.590;5.320;2022-12-13T04:31:58;-5.00;99.90
32907;DHT22;19259;51.590;5.320;2022-12-13T04:34:26;-5.00;99.90
32907;DHT22;19259;51.590;5.320;2022-12-13T04:36:53;-5.00;99.90
32907;DHT22;19259;51.590;5.320;2022-12-13T04:39:21;-5.00;99.90
32907;DHT22;19259;51.590;5.320;2022-12-13T04:41:50;-5.00;99.90
32907;DHT22;19259;51.590;5.320;2022-12-13T04:44:18;-5.00;99.90
32907;DHT22;19259;51.590;5.320;2022-12-13T04:46:45;-5.00;99.90
32907;DHT22;19259;51.590;5.320;2022-12-13T04:49:13;-5.00;99.90
32907;DHT22;19259;51.590;5.320;2022-12-13T04:51:40;-5.00;99.90
32907;DHT22;19259;51.590;5.320;2022-12-13T04:54:08;-5.00;99.90
32907;DHT22;19259;51.590;5.320;2022-12-13T04:56:41;-5.00;99.90
32907;DHT22;19259;51.590;5.320;2022-12-13T04:59:06;-5.00;99.90
32907;DHT22;19259;51.590;5.320;2022-12-13T05:01:37;-5.00;99.90
32907;DHT22;19259;51.590;5.320;2022-12-13T05:04:05;-5.00;99.90
32907;DHT22;19259;51.590;5.320;2022-12-13T05:06:32;-5.00;99.90
32907;DHT22;19259;51.590;5.320;2022-12-13T05:09:00;-5.00;99.90
32907;DHT22;19259;51.590;5.320;2022-12-13T05:11:28;-5.10;99.90
32907;DHT22;19259;51.590;5.320;2022-12-13T05:13:56;-5.20;99.90
32907;DHT22;19259;51.590;5.320;2022-12-13T05:16:24;-5.10;99.90
32907;DHT22;19259;51.590;5.320;2022-12-13T05:18:51;-5.10;99.90
32907;DHT22;19259;51.590;5.320;2022-12-13T05:21:19;-5.20;99.90
32907;DHT22;19259;51.590;5.320;2022-12-13T05:23:46;-5.20;99.90
32907;DHT22;19259;51.590;5.320;2022-12-13T05:26:14;-5.30;99.90
32907;DHT22;19259;51.590;5.320;2022-12-13T05:28:41;-5.30;99.90
32907;DHT22;19259;51.590;5.320;2022-12-13T05:31:11;-5.30;99.90
32907;DHT22;19259;51.590;5.320;2022-12-13T05:33:38;-5.20;99.90
32907;DHT22;19259;51.590;5.320;2022-12-13T05:36:06;-5.20;99.90
32907;DHT22;19259;51.590;5.320;2022-12-13T05:38:34;-5.20;99.90
32907;DHT22;19259;51.590;5.320;2022-12-13T05:41:02;-5.20;99.90
32907;DHT22;19259;51.590;5.320;2022-12-13T05:43:29;-5.20;99.90
32907;DHT22;19259;51.590;5.320;2022-12-13T05:45:57;-5.20;99.90
32907;DHT22;19259;51.590;5.320;2022-12-13T05:48:24;-5.20;99.90
32907;DHT22;19259;51.590;5.320;2022-12-13T05:50:52;-5.20;99.90
32907;DHT22;19259;51.590;5.320;2022-12-13T05:53:19;-5.20;99.90
32907;DHT22;19259;51.590;5.320;2022-12-13T05:55:47;-5.10;99.90
32907;DHT22;19259;51.590;5.320;2022-12-13T05:58:14;-5.20;99.90
32907;DHT22;19259;51.590;5.320;2022-12-13T06:00:43;-5.20;99.90
32907;DHT22;19259;51.590;5.320;2022-12-13T06:03:10;-5.10;99.90
32907;DHT22;19259;51.590;5.320;2022-12-13T06:05:38;-5.20;99.90
32907;DHT22;19259;51.590;5.320;2022-12-13T06:08:07;-5.10;99.90
32907;DHT22;19259;51.590;5.320;2022-12-13T06:10:35;-5.10;99.90
32907;DHT22;19259;51.590;5.320;2022-12-13T06:13:03;-5.10;99.90
32907;DHT22;19259;51.590;5.320;2022-12-13T06:15:31;-5.20;99.90
32907;DHT22;19259;51.590;5.320;2022-12-13T06:17:59;-5.10;99.90
32907;DHT22;19259;51.590;5.320;2022-12-13T06:20:26;-5.10;99.90
32907;DHT22;19259;51.590;5.320;2022-12-13T06:22:54;-5.10;99.90
32907;DHT22;19259;51.590;5.320;2022-12-13T06:25:22;-5.10;99.90
32907;DHT22;19259;51.590;5.320;2022-12-13T06:27:49;-5.10;99.90
32907;DHT22;19259;51.590;5.320;2022-12-13T06:30:17;-5.10;99.90
32907;DHT22;19259;51.590;5.320;2022-12-13T06:32:51;-5.10;99.90
32907;DHT22;19259;51.590;5.320;2022-12-13T06:35:18;-5.10;99.90
32907;DHT22;19259;51.590;5.320;2022-12-13T06:37:45;-5.10;99.90
32907;DHT22;19259;51.590;5.320;2022-12-13T06:40:13;-5.20;99.90
32907;DHT22;19259;51.590;5.320;2022-12-13T06:42:40;-5.20;99.90
32907;DHT22;19259;51.590;5.320;2022-12-13T06:45:08;-5.20;99.90
32907;DHT22;19259;51.590;5.320;2022-12-13T06:47:39;-5.20;99.90
32907;DHT22;19259;51.590;5.320;2022-12-13T06:50:07;-5.10;99.90
32907;DHT22;19259;51.590;5.320;2022-12-13T06:52:36;-5.10;99.90
32907;DHT22;19259;51.590;5.320;2022-12-13T06:55:04;-5.20;99.90
32907;DHT22;19259;51.590;5.320;2022-12-13T06:57:32;-5.20;99.90
32907;DHT22;19259;51.590;5.320;2022-12-13T07:00:00;-5.20;99.90
32907;DHT22;19259;51.590;5.320;2022-12-13T07:02:29;-5.10;99.90
32907;DHT22;19259;51.590;5.320;2022-12-13T07:04:56;-5.20;99.90
32907;DHT22;19259;51.590;5.320;2022-12-13T07:07:24;-5.20;99.90
32907;DHT22;19259;51.590;5.320;2022-12-13T07:09:53;-5.20;99.90
32907;DHT22;19259;51.590;5.320;2022-12-13T07:12:20;-5.20;99.90
32907;DHT22;19259;51.590;5.320;2022-12-13T07:14:48;-5.20;99.90
32907;DHT22;19259;51.590;5.320;2022-12-13T07:17:16;-5.20;99.90
32907;DHT22;19259;51.590;5.320;2022-12-13T07:19:44;-5.20;99.90
32907;DHT22;19259;51.590;5.320;2022-12-13T07:22:13;-5.20;99.90
32907;DHT22;19259;51.590;5.320;2022-12-13T07:24:40;-5.20;99.90
32907;DHT22;19259;51.590;5.320;2022-12-13T07:27:10;-5.10;99.90
32907;DHT22;19259;51.590;5.320;2022-12-13T07:29:39;-5.10;99.90
32907;DHT22;19259;51.590;5.320;2022-12-13T07:32:07;-5.10;99.90
32907;DHT22;19259;51.590;5.320;2022-12-13T07:34:35;-5.10;99.90
32907;DHT22;19259;51.590;5.320;2022-12-13T07:37:04;-5.10;99.90
32907;DHT22;19259;51.590;5.320;2022-12-13T07:39:31;-5.10;99.90
32907;DHT22;19259;51.590;5.320;2022-12-13T07:41:59;-5.10;99.90
32907;DHT22;19259;51.590;5.320;2022-12-13T07:44:26;-5.20;99.90
32907;DHT22;19259;51.590;5.320;2022-12-13T07:46:54;-5.10;99.90
32907;DHT22;19259;51.590;5.320;2022-12-13T07:49:21;-5.20;99.90
32907;DHT22;19259;51.590;5.320;2022-12-13T07:51:49;-5.10;99.90
32907;DHT22;19259;51.590;5.320;2022-12-13T07:54:16;-5.00;99.90
32907;DHT22;19259;51.590;5.320;2022-12-13T07:56:44;-5.00;99.90
32907;DHT22;19259;51.590;5.320;2022-12-13T07:59:12;-5.00;99.90
32907;DHT22;19259;51.590;5.320;2022-12-13T08:01:39;-4.80;99.90
32907;DHT22;19259;51.590;5.320;2022-12-13T08:04:08;-4.80;99.90
32907;DHT22;19259;51.590;5.320;2022-12-13T08:06:37;-4.80;99.90
32907;DHT22;19259;51.590;5.320;2022-12-13T08:09:05;-4.70;99.90
32907;DHT22;19259;51.590;5.320;2022-12-13T08:11:34;-4.70;99.90
32907;DHT22;19259;51.590;5.320;2022-12-13T08:14:02;-4.60;99.90
32907;DHT22;19259;51.590;5.320;2022-12-13T08:16:31;-4.60;99.90
32907;DHT22;19259;51.590;5.320;2022-12-13T08:18:59;-4.60;99.90
32907;DHT22;19259;51.590;5.320;2022-12-13T08:21:27;-4.60;99.90
32907;DHT22;19259;51.590;5.320;2022-12-13T08:23:54;-4.50;99.90
32907;DHT22;19259;51.590;5.320;2022-12-13T08:26:22;-4.50;99.90
32907;DHT22;19259;51.590;5.320;2022-12-13T08:28:49;-4.40;99.90
32907;DHT22;19259;51.590;5.320;2022-12-13T08:31:17;-4.40;99.90
32907;DHT22;19259;51.590;5.320;2022-12-13T08:33:45;-4.40;99.90
32907;DHT22;19259;51.590;5.320;2022-12-13T08:36:16;-4.30;99.90
32907;DHT22;19259;51.590;5.320;2022-12-13T08:38:45;-4.20;99.90
32907;DHT22;19259;51.590;5.320;2022-12-13T08:41:13;-4.10;99.90
32907;DHT22;19259;51.590;5.320;2022-12-13T08:43:40;-4.10;99.90
32907;DHT22;19259;51.590;5.320;2022-12-13T08:46:08;-4.10;99.90
32907;DHT22;19259;51.590;5.320;2022-12-13T08:48:35;-4.00;99.90
32907;DHT22;19259;51.590;5.320;2022-12-13T08:51:05;-4.00;99.90
32907;DHT22;19259;51.590;5.320;2022-12-13T08:53:34;-3.90;99.90
32907;DHT22;19259;51.590;5.320;2022-12-13T08:56:04;-3.90;99.90
32907;DHT22;19259;51.590;5.320;2022-12-13T08:58:32;-3.70;99.90
32907;DHT22;19259;51.590;5.320;2022-12-13T09:01:00;-3.50;99.90
32907;DHT22;19259;51.590;5.320;2022-12-13T09:03:28;-3.40;99.90
32907;DHT22;19259;51.590;5.320;2022-12-13T09:05:55;-3.40;99.90
32907;DHT22;19259;51.590;5.320;2022-12-13T09:08:27;-3.40;99.90
32907;DHT22;19259;51.590;5.320;2022-12-13T09:10:57;-3.30;99.90
32907;DHT22;19259;51.590;5.320;2022-12-13T09:13:24;-3.20;99.90
32907;DHT22;19259;51.590;5.320;2022-12-13T09:15:52;-3.20;99.90
32907;DHT22;19259;51.590;5.320;2022-12-13T09:18:19;-3.20;99.90
32907;DHT22;19259;51.590;5.320;2022-12-13T09:20:47;-3.20;99.90
32907;DHT22;19259;51.590;5.320;2022-12-13T09:23:15;-3.20;99.90
32907;DHT22;19259;51.590;5.320;2022-12-13T09:25:43;-3.10;99.90
32907;DHT22;19259;51.590;5.320;2022-12-13T09:28:10;-3.20;99.90
32907;DHT22;19259;51.590;5.320;2022-12-13T09:30:38;-2.90;99.90
32907;DHT22;19259;51.590;5.320;2022-12-13T09:33:06;-2.70;99.90
32907;DHT22;19259;51.590;5.320;2022-12-13T09:35:36;-2.60;99.90
32907;DHT22;19259;51.590;5.320;2022-12-13T09:38:02;-2.70;99.90
32907;DHT22;19259;51.590;5.320;2022-12-13T09:40:30;-2.70;99.90
32907;DHT22;19259;51.590;5.320;2022-12-13T09:42:59;-2.60;99.90
32907;DHT22;19259;51.590;5.320;2022-12-13T09:45:28;-2.50;99.90
32907;DHT22;19259;51.590;5.320;2022-12-13T09:47:57;-2.30;99.90
32907;DHT22;19259;51.590;5.320;2022-12-13T09:50:30;-2.30;99.90
32907;DHT22;19259;51.590;5.320;2022-12-13T09:52:59;-2.20;99.90
32907;DHT22;19259;51.590;5.320;2022-12-13T09:55:41;-2.00;99.90
32907;DHT22;19259;51.590;5.320;2022-12-13T09:58:23;-2.20;99.90
32907;DHT22;19259;51.590;5.320;2022-12-13T10:00:49;-2.10;99.90
32907;DHT22;19259;51.590;5.320;2022-12-13T10:03:21;-2.20;99.90
32907;DHT22;19259;51.590;5.320;2022-12-13T10:06:11;-2.00;99.90
32907;DHT22;19259;51.590;5.320;2022-12-13T10:08:44;-1.90;99.90
32907;DHT22;19259;51.590;5.320;2022-12-13T10:11:18;-1.90;99.90
32907;DHT22;19259;51.590;5.320;2022-12-13T10:14:09;-1.80;99.90
32907;DHT22;19259;51.590;5.320;2022-12-13T10:21:45;-1.70;99.90
32907;DHT22;19259;51.590;5.320;2022-12-13T10:24:22;-1.70;99.90
32907;DHT22;19259;51.590;5.320;2022-12-13T10:27:12;-1.70;99.90
32907;DHT22;19259;51.590;5.320;2022-12-13T10:30:01;-1.80;99.90
32907;DHT22;19259;51.590;5.320;2022-12-13T10:32:31;-1.90;99.90
32907;DHT22;19259;51.590;5.320;2022-12-13T10:37:49;-1.70;99.90
32907;DHT22;19259;51.590;5.320;2022-12-13T10:40:34;-1.70;99.90
32907;DHT22;19259;51.590;5.320;2022-12-13T10:43:06;-1.70;99.90
32907;DHT22;19259;51.590;5.320;2022-12-13T10:45:34;-1.70;99.90
32907;DHT22;19259;51.590;5.320;2022-12-13T10:48:02;-1.60;99.90
32907;DHT22;19259;51.590;5.320;2022-12-13T10:50:31;-1.50;99.90
32907;DHT22;19259;51.590;5.320;2022-12-13T10:53:00;-1.40;99.90
32907;DHT22;19259;51.590;5.320;2022-12-13T10:55:30;-1.30;99.90
32907;DHT22;19259;51.590;5.320;2022-12-13T10:58:06;-1.20;99.90
32907;DHT22;19259;51.590;5.320;2022-12-13T11:00:44;-1.20;99.90
32907;DHT22;19259;51.590;5.320;2022-12-13T11:06:15;-1.00;99.90
32907;DHT22;19259;51.590;5.320;2022-12-13T11:08:34;-1.00;99.90
32907;DHT22;19259;51.590;5.320;2022-12-13T11:11:04;-1.00;99.90
32907;DHT22;19259;51.590;5.320;2022-12-13T11:16:23;-1.30;99.90
32907;DHT22;19259;51.590;5.320;2022-12-13T11:18:54;-1.30;99.90
32907;DHT22;19259;51.590;5.320;2022-12-13T11:21:24;-1.20;99.90
32907;DHT22;19259;51.590;5.320;2022-12-13T11:23:54;-1.10;99.90
32907;DHT22;19259;51.590;5.320;2022-12-13T11:26:24;-1.00;99.90
32907;DHT22;19259;51.590;5.320;2022-12-13T11:34:30;-0.90;99.90
32907;DHT22;19259;51.590;5.320;2022-12-13T11:37:27;-0.80;99.90
32907;DHT22;19259;51.590;5.320;2022-12-13T11:40:41;-0.70;99.90
32907;DHT22;19259;51.590;5.320;2022-12-13T11:42:34;-0.70;99.90
32907;DHT22;19259;51.590;5.320;2022-12-13T11:45:06;-0.50;99.90
32907;DHT22;19259;51.590;5.320;2022-12-13T11:47:43;-0.40;99.90
32907;DHT22;19259;51.590;5.320;2022-12-13T11:50:20;-0.20;99.90
32907;DHT22;19259;51.590;5.320;2022-12-13T11:52:54;-0.10;99.90
32907;DHT22;19259;51.590;5.320;2022-12-13T11:55:37;0.00;99.90
32907;DHT22;19259;51.590;5.320;2022-12-13T11:58:08;0.00;99.90
32907;DHT22;19259;51.590;5.320;2022-12-13T12:00:42;-0.10;99.90
32907;DHT22;19259;51.590;5.320;2022-12-13T12:05:48;-0.20;99.90
32907;DHT22;19259;51.590;5.320;2022-12-13T12:08:26;-0.10;99.90
32907;DHT22;19259;51.590;5.320;2022-12-13T12:10:57;0.10;99.90
32907;DHT22;19259;51.590;5.320;2022-12-13T12:13:36;0.20;99.90
32907;DHT22;19259;51.590;5.320;2022-12-13T12:16:16;0.30;99.90
32907;DHT22;19259;51.590;5.320;2022-12-13T12:18:38;0.40;99.90
32907;DHT22;19259;51.590;5.320;2022-12-13T12:24:11;0.20;99.90
32907;DHT22;19259;51.590;5.320;2022-12-13T12:26:17;0.10;99.90
32907;DHT22;19259;51.590;5.320;2022-12-13T12:31:46;-0.10;99.90
32907;DHT22;19259;51.590;5.320;2022-12-13T12:34:36;-0.30;99.90
32907;DHT22;19259;51.590;5.320;2022-12-13T12:43:22;-0.50;99.90
32907;DHT22;19259;51.590;5.320;2022-12-13T12:46:16;-0.50;99.90
32907;DHT22;19259;51.590;5.320;2022-12-13T12:51:25;-0.50;99.90
32907;DHT22;19259;51.590;5.320;2022-12-13T12:54:13;-0.50;99.90
32907;DHT22;19259;51.590;5.320;2022-12-13T12:56:47;-0.50;99.90
32907;DHT22;19259;51.590;5.320;2022-12-13T13:02:06;-0.60;99.90
32907;DHT22;19259;51.590;5.320;2022-12-13T13:04:36;-0.60;99.90
32907;DHT22;19259;51.590;5.320;2022-12-13T13:07:09;-0.70;99.90
32907;DHT22;19259;51.590;5.320;2022-12-13T13:09:37;-0.70;99.90
32907;DHT22;19259;51.590;5.320;2022-12-13T13:12:09;-0.60;99.90
32907;DHT22;19259;51.590;5.320;2022-12-13T13:14:38;-0.50;99.90
32907;DHT22;19259;51.590;5.320;2022-12-13T13:22:35;-0.50;99.90
32907;DHT22;19259;51.590;5.320;2022-12-13T13:28:04;-0.40;99.90
32907;DHT22;19259;51.590;5.320;2022-12-13T13:30:29;-0.40;99.90
32907;DHT22;19259;51.590;5.320;2022-12-13T13:32:57;-0.40;99.90
32907;DHT22;19259;51.590;5.320;2022-12-13T13:38:24;-0.30;99.90
32907;DHT22;19259;51.590;5.320;2022-12-13T13:40:37;-0.30;99.90
32907;DHT22;19259;51.590;5.320;2022-12-13T13:43:12;-0.40;99.90
32907;DHT22;19259;51.590;5.320;2022-12-13T13:45:59;-0.40;99.90
32907;DHT22;19259;51.590;5.320;2022-12-13T13:51:29;-0.40;99.90
32907;DHT22;19259;51.590;5.320;2022-12-13T14:08:32;-0.60;99.90
32907;DHT22;19259;51.590;5.320;2022-12-13T14:11:22;-0.60;99.90
32907;DHT22;19259;51.590;5.320;2022-12-13T14:25:16;-0.60;99.90
32907;DHT22;19259;51.590;5.320;2022-12-13T14:30:24;-0.70;99.90
32907;DHT22;19259;51.590;5.320;2022-12-13T14:32:52;-0.70;99.90
32907;DHT22;19259;51.590;5.320;2022-12-13T14:35:22;-0.70;99.90
32907;DHT22;19259;51.590;5.320;2022-12-13T14:38:02;-0.70;99.90
32907;DHT22;19259;51.590;5.320;2022-12-13T14:40:36;-0.70;99.90
32907;DHT22;19259;51.590;5.320;2022-12-13T14:43:01;-0.70;99.90
32907;DHT22;19259;51.590;5.320;2022-12-13T14:45:31;-0.70;99.90
32907;DHT22;19259;51.590;5.320;2022-12-13T14:48:02;-0.80;99.90
32907;DHT22;19259;51.590;5.320;2022-12-13T14:50:32;-0.80;99.90
32907;DHT22;19259;51.590;5.320;2022-12-13T14:53:00;-0.80;99.90
32907;DHT22;19259;51.590;5.320;2022-12-13T14:55:35;-0.80;99.90
32907;DHT22;19259;51.590;5.320;2022-12-13T14:58:24;-0.80;99.90
32907;DHT22;19259;51.590;5.320;2022-12-13T15:00:38;-0.80;99.90
32907;DHT22;19259;51.590;5.320;2022-12-13T15:03:05;-0.80;99.90
32907;DHT22;19259;51.590;5.320;2022-12-13T15:05:37;-0.80;99.90
32907;DHT22;19259;51.590;5.320;2022-12-13T15:08:08;-0.90;99.90
32907;DHT22;19259;51.590;5.320;2022-12-13T15:10:44;-0.90;99.90
32907;DHT22;19259;51.590;5.320;2022-12-13T15:13:32;-0.90;99.90
32907;DHT22;19259;51.590;5.320;2022-12-13T15:16:01;-0.90;99.90
32907;DHT22;19259;51.590;5.320;2022-12-13T15:18:30;-1.00;99.90
32907;DHT22;19259;51.590;5.320;2022-12-13T15:20:58;-1.00;99.90
32907;DHT22;19259;51.590;5.320;2022-12-13T15:23:34;-1.10;99.90
32907;DHT22;19259;51.590;5.320;2022-12-13T15:26:11;-1.10;99.90
32907;DHT22;19259;51.590;5.320;2022-12-13T15:28:42;-1.10;99.90
32907;DHT22;19259;51.590;5.320;2022-12-13T15:31:12;-1.10;99.90
32907;DHT22;19259;51.590;5.320;2022-12-13T15:33:40;-1.10;99.90
32907;DHT22;19259;51.590;5.320;2022-12-13T15:36:19;-1.20;99.90
32907;DHT22;19259;51.590;5.320;2022-12-13T15:41:35;-1.20;99.90
32907;DHT22;19259;51.590;5.320;2022-12-13T15:44:22;-1.30;99.90
32907;DHT22;19259;51.590;5.320;2022-12-13T15:46:51;-1.20;99.90
32907;DHT22;19259;51.590;5.320;2022-12-13T15:49:49;-1.30;99.90
32907;DHT22;19259;51.590;5.320;2022-12-13T15:52:00;-1.30;99.90
32907;DHT22;19259;51.590;5.320;2022-12-13T15:54:28;-1.20;99.90
32907;DHT22;19259;51.590;5.320;2022-12-13T15:57:11;-1.40;99.90
32907;DHT22;19259;51.590;5.320;2022-12-13T15:59:42;-1.30;99.90
32907;DHT22;19259;51.590;5.320;2022-12-13T16:02:16;-1.40;99.90
32907;DHT22;19259;51.590;5.320;2022-12-13T16:04:44;-1.30;99.90
32907;DHT22;19259;51.590;5.320;2022-12-13T16:07:31;-1.30;99.90
32907;DHT22;19259;51.590;5.320;2022-12-13T16:09:55;-1.30;99.90
32907;DHT22;19259;51.590;5.320;2022-12-13T16:12:49;-1.40;99.90
32907;DHT22;19259;51.590;5.320;2022-12-13T16:17:43;-1.40;99.90
32907;DHT22;19259;51.590;5.320;2022-12-13T16:20:13;-1.40;99.90
32907;DHT22;19259;51.590;5.320;2022-12-13T16:22:42;-1.40;99.90
32907;DHT22;19259;51.590;5.320;2022-12-13T16:25:11;-1.50;99.90
32907;DHT22;19259;51.590;5.320;2022-12-13T16:27:39;-1.40;99.90
32907;DHT22;19259;51.590;5.320;2022-12-13T16:30:48;-1.40;99.90
32907;DHT22;19259;51.590;5.320;2022-12-13T16:32:56;-1.50;99.90
32907;DHT22;19259;51.590;5.320;2022-12-13T16:35:24;-1.50;99.90
32907;DHT22;19259;51.590;5.320;2022-12-13T16:37:51;-1.50;99.90
32907;DHT22;19259;51.590;5.320;2022-12-13T16:40:27;-1.50;99.90
32907;DHT22;19259;51.590;5.320;2022-12-13T16:42:58;-1.50;99.90
32907;DHT22;19259;51.590;5.320;2022-12-13T16:45:36;-1.50;99.90
32907;DHT22;19259;51.590;5.320;2022-12-13T16:47:59;-1.50;99.90
32907;DHT22;19259;51.590;5.320;2022-12-13T16:50:27;-1.50;99.90
32907;DHT22;19259;51.590;5.320;2022-12-13T16:52:56;-1.50;99.90
32907;DHT22;19259;51.590;5.320;2022-12-13T16:55:24;-1.50;99.90
32907;DHT22;19259;51.590;5.320;2022-12-13T16:57:56;-1.50;99.90
32907;DHT22;19259;51.590;5.320;2022-12-13T17:00:25;-1.50;99.90
32907;DHT22;19259;51.590;5.320;2022-12-13T17:02:53;-1.50;99.90
32907;DHT22;19259;51.590;5.320;2022-12-13T17:05:21;-1.50;99.90
32907;DHT22;19259;51.590;5.320;2022-12-13T17:07:49;-1.60;99.90
32907;DHT22;19259;51.590;5.320;2022-12-13T17:10:17;-1.50;99.90
32907;DHT22;19259;51.590;5.320;2022-12-13T17:12:45;-1.60;99.90
32907;DHT22;19259;51.590;5.320;2022-12-13T17:15:13;-1.60;99.90
32907;DHT22;19259;51.590;5.320;2022-12-13T17:17:43;-1.60;99.90
32907;DHT22;19259;51.590;5.320;2022-12-13T17:20:13;-1.60;99.90
32907;DHT22;19259;51.590;5.320;2022-12-13T17:22:42;-1.60;99.90
32907;DHT22;19259;51.590;5.320;2022-12-13T17:25:14;-1.60;99.90
32907;DHT22;19259;51.590;5.320;2022-12-13T17:27:44;-1.60;99.90
32907;DHT22;19259;51.590;5.320;2022-12-13T17:30:14;-1.60;99.90
32907;DHT22;19259;51.590;5.320;2022-12-13T17:32:42;-1.60;99.90
32907;DHT22;19259;51.590;5.320;2022-12-13T17:35:11;-1.60;99.90
32907;DHT22;19259;51.590;5.320;2022-12-13T17:37:38;-1.60;99.90
32907;DHT22;19259;51.590;5.320;2022-12-13T17:40:07;-1.60;99.90
32907;DHT22;19259;51.590;5.320;2022-12-13T17:42:35;-1.60;99.90